createdAt,value
2019-05-21T00:00:40.066Z,5.30
2019-05-21T00:03:43.764Z,5.33
2019-05-21T00:06:47.466Z,4.50
2019-05-21T00:09:51.166Z,4.63
2019-05-21T00:12:54.866Z,5.17
2019-05-21T00:15:58.561Z,4.37
2019-05-21T00:19:02.272Z,5.27
2019-05-21T00:22:06.346Z,4.90
2019-05-21T00:25:10.278Z,4.97
2019-05-21T00:28:37.465Z,4.83
2019-05-21T00:32:17.377Z,5.07
2019-05-21T00:35:57.720Z,5.20
2019-05-21T00:39:37.388Z,6.23
2019-05-21T00:42:44.540Z,5.13
2019-05-21T00:45:48.238Z,5.50
2019-05-21T00:48:52.019Z,5.27
2019-05-21T00:52:07.001Z,5.10
2019-05-21T00:55:01.218Z,4.50
2019-05-21T00:58:04.909Z,5.37
2019-05-21T01:01:08.600Z,4.57
2019-05-21T01:04:12.694Z,5.30
2019-05-21T01:07:16.394Z,4.87
2019-05-21T01:10:20.091Z,5.63
2019-05-21T01:13:23.853Z,5.00
2019-05-21T01:16:27.556Z,5.80
2019-05-21T01:19:31.255Z,5.97
2019-05-21T01:22:34.963Z,5.60
2019-05-21T01:25:38.669Z,5.50
2019-05-21T01:28:42.776Z,5.93
2019-05-21T01:31:46.473Z,4.77
2019-05-21T01:34:50.557Z,6.00
2019-05-21T01:37:54.546Z,4.87
2019-05-21T01:40:58.585Z,5.17
2019-05-21T01:44:02.728Z,5.40
2019-05-21T01:47:06.623Z,6.00
2019-05-21T01:50:10.886Z,5.73
2019-05-21T01:53:14.552Z,5.60
2019-05-21T01:56:18.328Z,5.27
2019-05-21T01:59:22.034Z,5.13
2019-05-21T02:02:25.736Z,5.07
2019-05-21T02:05:33.045Z,5.57
2019-05-21T02:08:35.581Z,5.50
2019-05-21T02:11:39.619Z,4.73
2019-05-21T02:14:43.331Z,6.00
2019-05-21T02:17:47.037Z,6.70
2019-05-21T02:20:50.751Z,5.37
2019-05-21T02:23:54.454Z,5.90
2019-05-21T02:26:58.160Z,5.03
2019-05-21T02:30:02.049Z,6.00
2019-05-21T02:33:06.239Z,6.43
2019-05-21T02:36:10.004Z,7.33
2019-05-21T02:39:13.788Z,6.90
2019-05-21T02:42:17.497Z,7.93
2019-05-21T02:45:21.462Z,8.53
2019-05-21T02:48:25.244Z,8.27
2019-05-21T02:51:28.958Z,8.43
2019-05-21T02:54:40.992Z,8.67
2019-05-21T02:57:39.612Z,8.93
2019-05-21T03:01:01.120Z,8.83
2019-05-21T03:04:05.192Z,9.07
2019-05-21T03:07:18.100Z,11.43
2019-05-21T03:10:21.783Z,12.27
2019-05-21T03:13:25.505Z,9.90
2019-05-21T03:16:29.232Z,9.83
2019-05-21T03:19:33.009Z,11.20
2019-05-21T03:22:36.907Z,10.67
2019-05-21T03:25:41.170Z,9.87
2019-05-21T03:28:44.892Z,11.43
2019-05-21T03:31:48.607Z,9.97
2019-05-21T03:34:52.471Z,9.73
2019-05-21T03:37:56.626Z,9.90
2019-05-21T03:41:00.634Z,11.20
2019-05-21T03:44:04.428Z,12.40
2019-05-21T03:47:08.144Z,11.23
2019-05-21T03:50:12.163Z,12.13
2019-05-21T03:53:15.880Z,11.50
2019-05-21T03:56:19.594Z,12.50
2019-05-21T03:59:23.309Z,11.07
2019-05-21T04:02:27.034Z,11.40
2019-05-21T04:05:30.816Z,10.50
2019-05-21T04:08:34.532Z,10.10
2019-05-21T04:11:38.545Z,11.17
2019-05-21T04:14:46.604Z,14.73
2019-05-21T04:17:56.436Z,11.00
2019-05-21T04:21:00.163Z,13.87
2019-05-21T04:24:08.317Z,14.20
2019-05-21T04:27:09.643Z,20.40
2019-05-21T04:30:13.682Z,18.73
2019-05-21T04:33:17.405Z,13.10
2019-05-21T04:36:21.181Z,13.83
2019-05-21T04:39:25.312Z,12.77
2019-05-21T04:42:29.003Z,14.33
2019-05-21T04:45:32.729Z,40.23
2019-05-21T04:48:36.461Z,12.20
2019-05-21T04:51:40.170Z,15.40
2019-05-21T04:54:43.968Z,14.20
2019-05-21T04:57:47.671Z,17.37
2019-05-21T05:00:51.458Z,14.13
2019-05-21T05:03:55.168Z,13.43
2019-05-21T05:06:58.901Z,15.13
2019-05-21T05:10:02.679Z,18.67
2019-05-21T05:13:06.378Z,13.07
2019-05-21T05:16:10.084Z,12.70
2019-05-21T05:19:13.868Z,11.77
2019-05-21T05:22:17.617Z,13.70
2019-05-21T05:25:21.390Z,16.77
2019-05-21T05:28:25.106Z,12.00
2019-05-21T05:31:28.853Z,13.97
2019-05-21T05:34:32.827Z,13.43
2019-05-21T05:37:44.095Z,13.30
2019-05-21T05:40:41.963Z,13.53
2019-05-21T05:43:45.667Z,15.60
2019-05-21T05:46:49.404Z,17.20
2019-05-21T05:49:54.887Z,16.17
2019-05-21T05:52:58.609Z,14.87
2019-05-21T05:56:02.312Z,16.80
2019-05-21T05:59:06.005Z,17.67
2019-05-21T06:02:09.707Z,13.80
2019-05-21T06:05:13.954Z,13.87
2019-05-21T06:08:17.664Z,18.13
2019-05-21T06:11:21.355Z,20.60
2019-05-21T06:14:25.460Z,19.00
2019-05-21T06:17:29.141Z,18.40
2019-05-21T06:20:33.180Z,16.40
2019-05-21T06:23:36.873Z,18.57
2019-05-21T06:26:40.675Z,19.47
2019-05-21T06:29:44.379Z,17.77
2019-05-21T06:32:48.159Z,22.57
2019-05-21T06:35:51.865Z,20.57
2019-05-21T06:38:55.619Z,20.20
2019-05-21T06:41:59.313Z,16.53
2019-05-21T06:45:03.499Z,16.67
2019-05-21T06:48:07.435Z,19.40
2019-05-21T06:51:11.132Z,15.37
2019-05-21T06:54:14.841Z,16.17
2019-05-21T06:57:18.686Z,14.20
2019-05-21T07:00:22.501Z,13.47
2019-05-21T07:03:26.625Z,16.67
2019-05-21T07:06:30.353Z,14.67
2019-05-21T07:09:34.128Z,14.33
2019-05-21T07:12:38.409Z,14.40
2019-05-21T07:15:42.503Z,19.50
2019-05-21T07:18:46.627Z,17.70
2019-05-21T07:21:50.403Z,16.63
2019-05-21T07:24:54.197Z,18.47
2019-05-21T07:27:57.901Z,15.07
2019-05-21T07:31:01.616Z,16.03
2019-05-21T07:34:05.476Z,18.53
2019-05-21T07:37:09.506Z,17.07
2019-05-21T07:40:14.481Z,18.87
2019-05-21T07:43:18.199Z,19.73
2019-05-21T07:46:21.970Z,17.67
2019-05-21T07:49:25.680Z,16.80
2019-05-21T07:52:30.072Z,17.03
2019-05-21T07:55:34.247Z,19.63
2019-05-21T07:58:37.987Z,19.43
2019-05-21T08:01:41.704Z,18.23
2019-05-21T08:04:45.415Z,16.07
2019-05-21T08:07:49.469Z,19.80
2019-05-21T08:10:53.257Z,17.73
2019-05-21T08:13:57.570Z,17.93
2019-05-21T08:17:01.290Z,17.63
2019-05-21T08:20:09.851Z,16.50
2019-05-21T08:23:11.580Z,18.87
2019-05-21T08:26:15.781Z,20.60
2019-05-21T08:29:19.508Z,17.77
2019-05-21T08:32:23.205Z,17.70
2019-05-21T08:35:26.932Z,19.67
2019-05-21T08:38:30.628Z,19.33
2019-05-21T08:41:34.347Z,19.17
2019-05-21T08:44:38.052Z,21.17
2019-05-21T08:47:41.838Z,21.03
2019-05-21T08:50:45.583Z,23.37
2019-05-21T08:53:49.248Z,18.77
2019-05-21T08:56:52.963Z,18.53
2019-05-21T08:59:56.660Z,25.53
2019-05-21T09:03:00.387Z,20.13
2019-05-21T09:06:04.191Z,19.43
2019-05-21T09:09:08.042Z,20.80
2019-05-21T09:12:11.823Z,22.77
2019-05-21T09:15:15.874Z,24.27
2019-05-21T09:18:19.593Z,24.07
2019-05-21T09:21:23.384Z,24.57
2019-05-21T09:24:27.083Z,23.83
2019-05-21T09:27:30.821Z,20.57
2019-05-21T09:30:34.589Z,20.97
2019-05-21T09:33:38.305Z,21.57
2019-05-21T09:36:42.015Z,21.83
2019-05-21T09:39:45.720Z,20.53
2019-05-21T09:42:49.433Z,23.03
2019-05-21T09:45:53.136Z,21.90
2019-05-21T09:48:56.852Z,23.60
2019-05-21T09:52:00.569Z,19.43
2019-05-21T09:55:04.653Z,20.87
2019-05-21T09:58:33.579Z,20.33
2019-05-21T10:01:47.447Z,16.80
2019-05-21T10:04:48.834Z,19.37
2019-05-21T10:07:52.544Z,20.07
2019-05-21T10:10:56.238Z,20.30
2019-05-21T10:13:59.945Z,22.93
2019-05-21T10:17:03.731Z,22.40
2019-05-21T10:20:07.952Z,20.70
2019-05-21T10:23:11.658Z,20.70
2019-05-21T10:26:15.606Z,19.03
2019-05-21T10:29:19.364Z,16.90
2019-05-21T10:32:23.049Z,19.13
2019-05-21T10:35:26.763Z,20.60
2019-05-21T10:38:30.534Z,20.03
2019-05-21T10:41:34.261Z,18.67
2019-05-21T10:44:38.393Z,16.30
2019-05-21T10:47:42.282Z,16.80
2019-05-21T10:50:46.007Z,18.70
2019-05-21T10:53:49.727Z,14.67
2019-05-21T10:56:53.452Z,18.43
2019-05-21T10:59:57.158Z,16.97
2019-05-21T11:03:14.373Z,16.87
2019-05-21T11:06:18.088Z,15.47
2019-05-21T11:09:22.312Z,14.13
2019-05-21T11:12:26.230Z,15.13
2019-05-21T11:15:29.962Z,17.33
2019-05-21T11:18:34.034Z,13.97
2019-05-21T11:21:38.010Z,16.63
2019-05-21T11:24:41.718Z,15.30
2019-05-21T11:27:45.451Z,17.23
2019-05-21T11:30:49.451Z,17.73
2019-05-21T11:33:53.329Z,17.13
2019-05-21T11:36:57.045Z,20.50
2019-05-21T11:40:00.823Z,18.83
2019-05-21T11:43:04.851Z,14.27
2019-05-21T11:46:08.665Z,20.07
2019-05-21T11:49:12.455Z,19.40
2019-05-21T11:52:16.177Z,19.10
2019-05-21T11:55:19.958Z,14.93
2019-05-21T11:58:23.823Z,18.47
2019-05-21T12:01:27.893Z,19.47
2019-05-21T12:04:31.605Z,20.07
2019-05-21T12:07:35.307Z,19.80
2019-05-21T12:10:39.266Z,20.00
2019-05-21T12:13:42.997Z,18.83
2019-05-21T12:16:46.715Z,19.07
2019-05-21T12:19:50.438Z,18.47
2019-05-21T12:22:54.170Z,20.53
2019-05-21T12:25:58.340Z,21.17
2019-05-21T12:29:02.687Z,20.80
2019-05-21T12:32:06.394Z,21.13
2019-05-21T12:35:10.350Z,20.47
2019-05-21T12:38:14.056Z,20.23
2019-05-21T12:41:17.797Z,17.57
2019-05-21T12:44:21.816Z,18.63
2019-05-21T12:47:25.925Z,17.27
2019-05-21T12:50:29.764Z,17.37
2019-05-21T12:53:33.555Z,19.70
2019-05-21T12:56:40.647Z,19.80
2019-05-21T12:59:42.713Z,21.47
2019-05-21T13:02:46.559Z,18.73
2019-05-21T13:05:50.527Z,15.53
2019-05-21T13:08:54.256Z,17.10
2019-05-21T13:11:57.949Z,18.87
2019-05-21T13:15:01.659Z,20.53
2019-05-21T13:18:05.932Z,19.20
2019-05-21T13:21:09.630Z,18.03
2019-05-21T13:24:13.498Z,20.80
2019-05-21T13:27:17.267Z,20.10
2019-05-21T13:30:21.915Z,18.00
2019-05-21T13:33:25.698Z,20.27
2019-05-21T13:36:29.414Z,20.07
2019-05-21T13:39:48.914Z,21.37
2019-05-21T13:42:38.754Z,22.57
2019-05-21T13:45:42.458Z,19.83
2019-05-21T13:48:47.087Z,22.70
2019-05-21T13:51:51.099Z,22.63
2019-05-21T13:54:54.790Z,20.10
2019-05-21T13:57:58.879Z,19.13
2019-05-21T14:01:02.935Z,20.27
2019-05-21T14:04:06.916Z,20.30
2019-05-21T14:07:10.813Z,18.40
2019-05-21T14:10:19.975Z,20.83
2019-05-21T14:13:20.570Z,21.17
2019-05-21T14:16:24.398Z,21.40
2019-05-21T14:19:28.764Z,20.43
2019-05-21T14:22:36.430Z,23.10
2019-05-21T14:25:37.910Z,28.13
2019-05-21T14:28:41.658Z,27.17
2019-05-21T14:31:45.369Z,27.50
2019-05-21T14:35:01.003Z,35.67
2019-05-21T14:37:54.515Z,34.33
2019-05-21T14:40:58.213Z,33.17
2019-05-21T14:44:02.556Z,29.93
2019-05-21T14:47:06.658Z,30.50
2019-05-21T14:50:10.848Z,23.83
2019-05-21T14:53:14.870Z,26.83
2019-05-21T14:56:18.606Z,23.23
2019-05-21T14:59:22.318Z,23.40
2019-05-21T15:02:26.071Z,36.03
2019-05-21T15:05:30.675Z,28.40
2019-05-21T15:08:34.714Z,22.50
2019-05-21T15:11:38.439Z,25.00
2019-05-21T15:14:42.265Z,27.47
2019-05-21T15:17:45.994Z,25.33
2019-05-21T15:20:57.866Z,24.83
2019-05-21T15:24:02.815Z,20.97
2019-05-21T15:27:06.749Z,24.77
2019-05-21T15:30:11.551Z,22.67
2019-05-21T15:33:15.277Z,21.23
2019-05-21T15:36:19.078Z,25.07
2019-05-21T15:39:22.780Z,20.33
2019-05-21T15:42:26.579Z,21.00
2019-05-21T15:45:30.289Z,23.27
2019-05-21T15:48:34.006Z,18.37
2019-05-21T15:51:37.716Z,23.03
2019-05-21T15:54:41.687Z,19.03
2019-05-21T15:57:45.429Z,16.60
2019-05-21T16:00:49.569Z,22.83
2019-05-21T16:03:53.272Z,16.30
2019-05-21T16:06:57.761Z,17.53
2019-05-21T16:10:01.480Z,15.97
2019-05-21T16:13:05.278Z,17.60
2019-05-21T16:16:09.358Z,15.70
2019-05-21T16:19:13.370Z,12.80
2019-05-21T16:22:17.086Z,15.00
2019-05-21T16:25:21.206Z,13.10
2019-05-21T16:28:24.919Z,12.57
2019-05-21T16:31:28.803Z,13.20
2019-05-21T16:34:32.548Z,10.20
2019-05-21T16:37:36.527Z,12.37
2019-05-21T16:40:40.261Z,9.40
2019-05-21T16:43:44.671Z,9.53
2019-05-21T16:46:48.483Z,10.30
2019-05-21T16:49:52.778Z,7.87
2019-05-21T16:52:56.578Z,5.60
2019-05-21T16:56:00.832Z,8.07
2019-05-21T16:59:04.654Z,7.57
2019-05-21T17:02:08.424Z,6.40
2019-05-21T17:05:13.847Z,11.23
2019-05-21T17:08:17.573Z,8.40
2019-05-21T17:11:21.300Z,7.30
2019-05-21T17:14:25.015Z,7.60
2019-05-21T17:17:28.754Z,8.80
2019-05-21T17:20:34.258Z,7.90
2019-05-21T17:23:38.604Z,6.80
2019-05-21T17:26:43.077Z,9.13
2019-05-21T17:29:47.181Z,6.93
2019-05-21T17:32:50.900Z,11.17
2019-05-21T17:35:54.684Z,6.93
2019-05-21T17:38:58.453Z,9.70
2019-05-21T17:42:14.754Z,8.57
2019-05-21T17:45:07.871Z,8.00
2019-05-21T17:48:11.793Z,8.50
2019-05-21T17:51:15.501Z,9.67
2019-05-21T17:54:19.306Z,8.70
2019-05-21T17:57:23.414Z,8.47
2019-05-21T18:00:44.848Z,8.30
2019-05-21T18:03:49.109Z,7.90
2019-05-21T18:06:52.973Z,9.47
2019-05-21T18:09:56.966Z,8.40
2019-05-21T18:13:00.956Z,12.13
2019-05-21T18:16:06.104Z,10.23
2019-05-21T18:19:10.504Z,10.63
2019-05-21T18:22:18.263Z,13.50
2019-05-21T18:25:23.404Z,9.30
2019-05-21T18:28:27.306Z,12.40
2019-05-21T18:31:31.022Z,12.53
2019-05-21T18:34:34.834Z,9.90
2019-05-21T18:37:39.138Z,10.90
2019-05-21T18:40:43.144Z,12.60
2019-05-21T18:43:49.865Z,14.07
2019-05-21T18:46:52.454Z,11.70
2019-05-21T18:49:56.218Z,12.17
2019-05-21T18:53:00.375Z,11.30
2019-05-21T18:56:04.532Z,15.67
2019-05-21T18:59:08.548Z,12.00
2019-05-21T19:02:14.596Z,11.17
2019-05-21T19:05:18.413Z,11.17
2019-05-21T19:08:22.218Z,12.07
2019-05-21T19:11:26.345Z,12.30
2019-05-21T19:14:30.162Z,13.80
2019-05-21T19:17:35.867Z,11.23
2019-05-21T19:20:39.558Z,11.17
2019-05-21T19:23:43.809Z,14.47
2019-05-21T19:26:47.542Z,15.30
2019-05-21T19:29:52.432Z,9.73
2019-05-21T19:32:56.247Z,10.57
2019-05-21T19:36:00.306Z,10.73
2019-05-21T19:39:05.193Z,10.23
2019-05-21T19:42:09.621Z,8.33
2019-05-21T19:45:13.946Z,11.40
2019-05-21T19:48:18.037Z,10.03
2019-05-21T19:51:21.814Z,12.40
2019-05-21T19:54:25.625Z,10.00
2019-05-21T19:57:30.818Z,8.17
2019-05-21T20:00:39.129Z,9.33
2019-05-21T20:03:43.370Z,8.97
2019-05-21T20:06:47.580Z,9.57
2019-05-21T20:09:51.977Z,8.70
2019-05-21T20:12:55.823Z,10.60
2019-05-21T20:16:00.991Z,8.50
2019-05-21T20:19:06.069Z,8.93
2019-05-21T20:22:11.446Z,8.50
2019-05-21T20:25:16.592Z,9.67
2019-05-21T20:28:20.690Z,10.83
2019-05-21T20:31:24.927Z,8.70
2019-05-21T20:34:29.065Z,14.23
2019-05-21T20:37:34.399Z,13.70
2019-05-21T20:40:38.737Z,13.67
2019-05-21T20:43:56.841Z,17.20
2019-05-21T20:46:49.084Z,13.40
2019-05-21T20:49:52.815Z,11.40
2019-05-21T20:52:57.251Z,11.87
2019-05-21T20:56:01.442Z,10.30
2019-05-21T20:59:06.435Z,10.37
2019-05-21T21:02:11.876Z,10.57
2019-05-21T21:05:16.578Z,10.90
2019-05-21T21:08:20.601Z,13.27
2019-05-21T21:11:25.886Z,13.07
2019-05-21T21:14:30.190Z,12.07
2019-05-21T21:17:33.983Z,11.13
2019-05-21T21:20:38.327Z,11.60
2019-05-21T21:23:42.883Z,12.33
2019-05-21T21:26:46.859Z,13.90
2019-05-21T21:29:51.180Z,13.80
2019-05-21T21:32:56.645Z,11.77
2019-05-21T21:36:00.371Z,10.70
2019-05-21T21:39:06.355Z,10.97
2019-05-21T21:42:10.313Z,10.57
2019-05-21T21:45:14.661Z,10.57
2019-05-21T21:48:18.524Z,10.90
2019-05-21T21:51:22.842Z,13.07
2019-05-21T21:54:26.983Z,10.40
2019-05-21T21:57:30.688Z,11.97
2019-05-21T22:01:31.183Z,13.30
2019-05-21T22:04:36.437Z,13.00
2019-05-21T22:07:40.485Z,9.90
2019-05-21T22:10:47.688Z,12.87
2019-05-21T22:13:51.850Z,12.07
2019-05-21T22:16:55.923Z,10.17
2019-05-21T22:19:59.896Z,11.13
2019-05-21T22:23:03.828Z,11.60
2019-05-21T22:26:07.588Z,10.03
2019-05-21T22:29:12.523Z,10.07
2019-05-21T22:32:16.842Z,12.17
2019-05-21T22:35:20.688Z,12.33
2019-05-21T22:38:24.453Z,9.83
2019-05-21T22:41:28.577Z,9.47
2019-05-21T22:44:33.064Z,12.97
2019-05-21T22:47:37.031Z,18.47
2019-05-21T22:50:40.810Z,16.27
2019-05-21T22:53:44.586Z,16.03
2019-05-21T22:56:48.476Z,10.53
2019-05-21T22:59:52.270Z,12.47
2019-05-21T23:02:56.425Z,14.47
2019-05-21T23:06:00.196Z,13.67
2019-05-21T23:09:05.282Z,12.30
2019-05-21T23:12:09.267Z,17.63
2019-05-21T23:15:24.308Z,15.80
2019-05-21T23:18:19.671Z,18.90
2019-05-21T23:21:23.808Z,16.33
2019-05-21T23:24:29.759Z,16.63
2019-05-21T23:27:34.131Z,19.57
2019-05-21T23:30:38.213Z,14.73
2019-05-21T23:33:42.087Z,17.17
2019-05-21T23:36:47.990Z,17.63
2019-05-21T23:39:52.892Z,17.43
2019-05-21T23:42:57.198Z,17.53
2019-05-21T23:46:01.265Z,13.47
2019-05-21T23:49:05.346Z,17.27
2019-05-21T23:52:09.641Z,16.53
2019-05-21T23:55:14.763Z,13.33
2019-05-21T23:58:18.954Z,14.20
